createdAt,value
2022-11-05T00:02:46.326Z,99073.78
2022-11-05T00:05:52.369Z,99081.59
2022-11-05T00:08:57.572Z,99084.28
2022-11-05T00:12:02.398Z,99083.31
2022-11-05T00:15:07.014Z,99089.41
2022-11-05T00:17:54.265Z,99084.28
2022-11-05T00:20:43.211Z,99090.22
2022-11-05T00:23:47.839Z,99096.16
2022-11-05T00:26:34.674Z,99098.84
2022-11-05T00:29:21.723Z,99099.66
2022-11-05T00:32:08.911Z,99098.84
2022-11-05T00:34:55.830Z,99099.66
2022-11-05T00:37:49.810Z,99097.91
2022-11-05T00:40:38.037Z,99113.41
2022-11-05T00:43:43.071Z,99117.63
2022-11-05T00:46:30.087Z,99124.59
2022-11-05T00:49:36.988Z,99118.56
2022-11-05T00:52:41.666Z,99127.16
2022-11-05T00:55:34.788Z,99135.78
2022-11-05T00:58:23.619Z,99137.56
2022-11-05T01:01:12.131Z,99135.91
2022-11-05T01:03:59.197Z,99140.25
2022-11-05T01:06:46.460Z,99139.41
2022-11-05T01:09:33.556Z,99149.00
2022-11-05T01:12:22.203Z,99144.66
2022-11-05T01:15:10.720Z,99145.50
2022-11-05T01:17:58.279Z,99150.50
2022-11-05T01:20:45.419Z,99149.66
2022-11-05T01:23:32.613Z,99148.75
2022-11-05T01:26:19.873Z,99151.44
2022-11-05T01:29:08.488Z,99162.50
2022-11-05T01:31:55.697Z,99161.69
2022-11-05T01:34:42.732Z,99166.81
2022-11-05T01:37:29.762Z,99159.25
2022-11-05T01:40:21.234Z,99164.50
2022-11-05T01:43:16.022Z,99163.56
2022-11-05T01:46:04.636Z,99163.56
2022-11-05T01:49:00.138Z,99167.88
2022-11-05T01:51:51.347Z,99159.38
2022-11-05T01:54:38.655Z,99161.09
2022-11-05T01:57:26.073Z,99171.34
2022-11-05T02:00:16.001Z,99179.16
2022-11-05T02:03:05.251Z,99188.50
2022-11-05T02:05:54.225Z,99190.28
2022-11-05T02:08:55.194Z,99184.44
2022-11-05T02:11:42.319Z,99189.69
2022-11-05T02:14:29.637Z,99193.03
2022-11-05T02:17:30.694Z,99183.75
2022-11-05T02:20:33.186Z,99182.09
2022-11-05T02:24:23.041Z,99190.97
2022-11-05T02:27:21.388Z,99188.41
2022-11-05T02:30:37.476Z,99197.16
2022-11-05T02:33:42.169Z,99205.75
2022-11-05T02:36:44.571Z,99202.41
2022-11-05T02:39:44.255Z,99189.56
2022-11-05T02:42:39.842Z,99200.75
2022-11-05T02:45:41.279Z,99210.22
2022-11-05T02:48:37.392Z,99211.00
2022-11-05T02:51:32.923Z,99201.56
2022-11-05T02:54:26.127Z,99210.09
2022-11-05T02:57:13.228Z,99210.88
2022-11-05T03:00:07.404Z,99221.97
2022-11-05T03:02:56.473Z,99214.38
2022-11-05T03:05:57.277Z,99222.06
2022-11-05T03:09:07.662Z,99224.63
2022-11-05T03:12:07.967Z,99218.72
2022-11-05T03:15:08.376Z,99227.19
2022-11-05T03:18:06.495Z,99230.59
2022-11-05T03:21:03.047Z,99240.03
2022-11-05T03:23:57.992Z,99241.66
2022-11-05T03:26:51.959Z,99245.84
2022-11-05T03:29:44.104Z,99239.94
2022-11-05T03:32:35.548Z,99252.75
2022-11-05T03:35:28.669Z,99258.69
2022-11-05T03:38:22.920Z,99253.56
2022-11-05T03:41:15.445Z,99255.31
2022-11-05T03:44:06.746Z,99259.47
2022-11-05T03:47:00.010Z,99265.44
2022-11-05T03:49:56.950Z,99273.13
2022-11-05T03:52:53.971Z,99274.88
2022-11-05T03:55:49.424Z,99274.06
2022-11-05T03:58:37.748Z,99285.13
2022-11-05T04:01:25.236Z,99291.09
2022-11-05T04:04:12.544Z,99281.63
2022-11-05T04:07:17.416Z,99277.31
2022-11-05T04:10:24.187Z,99292.69
2022-11-05T04:13:28.010Z,99292.69
2022-11-05T04:16:33.007Z,99300.38
2022-11-05T04:19:41.618Z,99290.25
2022-11-05T04:22:47.906Z,99296.22
2022-11-05T04:25:36.426Z,99298.78
2022-11-05T04:28:44.411Z,99295.25
2022-11-05T04:31:30.467Z,99300.38
2022-11-05T04:34:18.896Z,99304.59
2022-11-05T04:37:05.969Z,99305.44
2022-11-05T04:39:53.127Z,99313.00
2022-11-05T04:42:42.148Z,99313.00
2022-11-05T04:45:32.075Z,99312.03
2022-11-05T04:48:19.353Z,99307.88
2022-11-05T04:51:07.156Z,99317.28
2022-11-05T04:53:54.637Z,99310.56
2022-11-05T04:56:41.809Z,99319.16
2022-11-05T04:59:30.173Z,99310.66
2022-11-05T05:02:17.552Z,99316.72
2022-11-05T05:05:05.419Z,99326.97
2022-11-05T05:07:52.920Z,99320.22
2022-11-05T05:10:39.925Z,99317.66
2022-11-05T05:13:27.879Z,99329.66
2022-11-05T05:16:22.244Z,99320.34
2022-11-05T05:19:09.670Z,99322.06
2022-11-05T05:21:56.025Z,99331.50
2022-11-05T05:24:44.617Z,99334.19
2022-11-05T05:27:33.334Z,99329.88
2022-11-05T05:30:20.702Z,99325.69
2022-11-05T05:33:09.462Z,99341.88
2022-11-05T05:35:59.297Z,99345.38
2022-11-05T05:38:46.453Z,99342.81
2022-11-05T05:41:34.331Z,99343.66
2022-11-05T05:44:21.585Z,99353.06
2022-11-05T05:47:08.948Z,99358.19
2022-11-05T05:49:57.570Z,99359.13
2022-11-05T05:52:44.959Z,99362.50
2022-11-05T05:55:32.213Z,99366.00
2022-11-05T05:58:19.106Z,99378.00
2022-11-05T06:01:11.902Z,99382.31
2022-11-05T06:04:02.563Z,99383.34
2022-11-05T06:06:51.004Z,99391.03
2022-11-05T06:09:38.139Z,99392.78
2022-11-05T06:12:25.040Z,99402.25
2022-11-05T06:15:12.336Z,99402.25
2022-11-05T06:17:59.382Z,99403.06
2022-11-05T06:20:46.534Z,99406.41
2022-11-05T06:23:36.097Z,99413.19
2022-11-05T06:26:23.533Z,99423.44
2022-11-05T06:29:10.987Z,99418.31
2022-11-05T06:31:57.931Z,99419.13
2022-11-05T06:34:44.960Z,99431.00
2022-11-05T06:37:34.244Z,99436.97
2022-11-05T06:40:23.025Z,99435.22
2022-11-05T06:43:10.722Z,99440.34
2022-11-05T06:45:58.289Z,99449.81
2022-11-05T06:48:45.670Z,99455.84
2022-11-05T06:51:32.830Z,99452.38
2022-11-05T06:54:20.025Z,99460.97
2022-11-05T06:57:09.929Z,99466.09
2022-11-05T07:00:00.732Z,99485.78
2022-11-05T07:02:50.768Z,99487.66
2022-11-05T07:05:19.589Z,99490.09
2022-11-05T07:07:48.327Z,99493.59
2022-11-05T07:10:19.432Z,99498.72
2022-11-05T07:12:49.427Z,99496.25
2022-11-05T07:15:18.176Z,99494.63
2022-11-05T07:17:46.826Z,99500.59
2022-11-05T07:20:15.410Z,99492.91
2022-11-05T07:22:44.413Z,99508.03
2022-11-05T07:25:13.057Z,99515.75
2022-11-05T07:27:42.057Z,99522.50
2022-11-05T07:30:12.738Z,99528.44
2022-11-05T07:32:41.862Z,99527.63
2022-11-05T07:35:11.291Z,99529.28
2022-11-05T07:37:46.354Z,99541.25
2022-11-05T07:40:16.569Z,99544.66
2022-11-05T07:42:45.432Z,99546.38
2022-11-05T07:45:15.968Z,99544.75
2022-11-05T07:47:50.407Z,99555.72
2022-11-05T07:50:21.050Z,99553.16
2022-11-05T07:52:50.596Z,99561.66
2022-11-05T07:55:20.858Z,99565.88
2022-11-05T07:57:51.474Z,99566.59
2022-11-05T08:00:23.710Z,99569.03
2022-11-05T08:03:09.324Z,99563.09
2022-11-05T08:05:40.990Z,99574.19
2022-11-05T08:08:10.911Z,99576.75
2022-11-05T08:10:40.082Z,99570.69
2022-11-05T08:13:09.838Z,99580.00
2022-11-05T08:15:40.834Z,99583.41
2022-11-05T08:18:12.972Z,99597.84
2022-11-05T08:20:42.967Z,99595.28
2022-11-05T08:23:12.452Z,99598.66
2022-11-05T08:25:42.078Z,99599.47
2022-11-05T08:28:13.939Z,99599.59
2022-11-05T08:30:43.987Z,99592.72
2022-11-05T08:33:15.700Z,99602.97
2022-11-05T08:35:44.574Z,99601.34
2022-11-05T08:38:15.614Z,99603.91
2022-11-05T08:40:47.127Z,99609.03
2022-11-05T08:43:15.890Z,99603.06
2022-11-05T08:45:45.915Z,99606.47
2022-11-05T08:48:16.898Z,99609.03
2022-11-05T08:50:46.886Z,99605.53
2022-11-05T08:53:16.375Z,99608.00
2022-11-05T08:55:47.531Z,99608.00
2022-11-05T08:58:17.521Z,99614.75
2022-11-05T09:00:50.248Z,99615.59
2022-11-05T09:03:19.815Z,99606.94
2022-11-05T09:05:48.616Z,99609.44
2022-11-05T09:08:19.951Z,99610.22
2022-11-05T09:10:50.362Z,99619.56
2022-11-05T09:13:20.284Z,99622.94
2022-11-05T09:15:51.522Z,99615.88
2022-11-05T09:18:21.663Z,99621.00
2022-11-05T09:20:50.454Z,99626.94
2022-11-05T09:23:19.944Z,99629.38
2022-11-05T09:25:48.664Z,99630.22
2022-11-05T09:28:20.220Z,99626.63
2022-11-05T09:30:52.471Z,99628.25
2022-11-05T09:33:24.061Z,99629.06
2022-11-05T09:35:53.811Z,99628.25
2022-11-05T09:38:22.631Z,99635.00
2022-11-05T09:40:59.277Z,99632.34
2022-11-05T09:43:33.545Z,99639.34
2022-11-05T09:46:13.725Z,99645.28
2022-11-05T09:48:43.818Z,99650.41
2022-11-05T09:51:20.810Z,99646.91
2022-11-05T09:53:53.623Z,99658.00
2022-11-05T09:56:25.959Z,99657.19
2022-11-05T09:58:59.874Z,99663.97
2022-11-05T10:01:33.619Z,99662.19
2022-11-05T10:04:09.260Z,99663.97
2022-11-05T10:06:44.711Z,99665.56
2022-11-05T10:09:21.577Z,99661.41
2022-11-05T10:11:56.291Z,99674.22
2022-11-05T10:14:29.621Z,99673.38
2022-11-05T10:17:05.509Z,99677.59
2022-11-05T10:19:50.225Z,99679.34
2022-11-05T10:22:21.041Z,99672.56
2022-11-05T10:24:51.950Z,99687.97
2022-11-05T10:27:24.346Z,99689.69
2022-11-05T10:29:53.959Z,99694.00
2022-11-05T10:32:32.228Z,99694.81
2022-11-05T10:35:03.862Z,99692.38
2022-11-05T10:37:38.190Z,99688.78
2022-11-05T10:40:20.004Z,99699.03
2022-11-05T10:43:00.014Z,99693.91
2022-11-05T10:45:41.786Z,99699.16
2022-11-05T10:48:54.371Z,99699.94
2022-11-05T10:51:23.495Z,99699.03
2022-11-05T10:54:01.951Z,99702.31
2022-11-05T10:56:35.366Z,99698.00
2022-11-05T10:59:12.065Z,99693.59
2022-11-05T11:01:41.383Z,99696.84
2022-11-05T11:04:21.912Z,99695.03
2022-11-05T11:06:52.533Z,99695.72
2022-11-05T11:09:25.715Z,99695.59
2022-11-05T11:12:05.803Z,99698.78
2022-11-05T11:14:35.279Z,99697.88
2022-11-05T11:17:29.091Z,99689.31
2022-11-05T11:20:25.078Z,99695.28
2022-11-05T11:23:13.936Z,99698.78
2022-11-05T11:25:49.085Z,99690.28
2022-11-05T11:28:26.482Z,99685.84
2022-11-05T11:31:07.096Z,99686.66
2022-11-05T11:33:37.578Z,99681.53
2022-11-05T11:36:09.139Z,99682.34
2022-11-05T11:38:38.438Z,99693.22
2022-11-05T11:41:27.668Z,99679.44
2022-11-05T11:44:02.419Z,99675.16
2022-11-05T11:46:34.498Z,99686.00
2022-11-05T11:49:03.829Z,99675.75
2022-11-05T11:51:40.569Z,99672.03
2022-11-05T11:54:25.946Z,99676.22
2022-11-05T11:56:57.546Z,99673.66
2022-11-05T12:00:02.056Z,99667.50
2022-11-05T12:02:57.280Z,99681.13
2022-11-05T12:05:42.607Z,99680.22
2022-11-05T12:08:41.593Z,99682.66
2022-11-05T12:11:19.365Z,99674.84
2022-11-05T12:14:14.393Z,99676.50
2022-11-05T12:17:04.373Z,99678.94
2022-11-05T12:20:00.223Z,99678.16
2022-11-05T12:22:44.771Z,99671.97
2022-11-05T12:25:24.223Z,99679.56
2022-11-05T12:28:10.531Z,99670.94
2022-11-05T12:30:53.207Z,99676.88
2022-11-05T12:33:46.464Z,99673.50
2022-11-05T12:36:27.566Z,99671.63
2022-11-05T12:39:28.303Z,99679.34
2022-11-05T12:42:04.004Z,99672.47
2022-11-05T12:45:01.010Z,99675.84
2022-11-05T12:47:53.920Z,99670.72
2022-11-05T12:50:31.382Z,99670.72
2022-11-05T12:53:43.410Z,99670.72
2022-11-05T12:56:18.619Z,99673.28
2022-11-05T12:58:58.981Z,99667.22
2022-11-05T13:01:35.236Z,99665.56
2022-11-05T13:04:11.927Z,99667.34
2022-11-05T13:06:44.079Z,99667.34
2022-11-05T13:09:19.333Z,99677.59
2022-11-05T13:11:53.669Z,99669.06
2022-11-05T13:14:28.685Z,99673.50
2022-11-05T13:17:02.534Z,99679.56
2022-11-05T13:19:37.064Z,99681.41
2022-11-05T13:22:15.782Z,99677.34
2022-11-05T13:24:51.562Z,99680.00
2022-11-05T13:27:49.481Z,99681.88
2022-11-05T13:30:23.015Z,99685.34
2022-11-05T13:32:59.410Z,99678.56
2022-11-05T13:35:33.233Z,99676.97
2022-11-05T13:38:43.679Z,99680.44
2022-11-05T13:41:26.265Z,99670.41
2022-11-05T13:44:27.976Z,99669.56
2022-11-05T13:48:06.688Z,99676.78
2022-11-05T13:51:01.404Z,99676.88
2022-11-05T13:54:17.580Z,99670.94
2022-11-05T13:57:08.421Z,99680.59
2022-11-05T14:00:02.793Z,99678.03
2022-11-05T14:02:40.643Z,99680.59
2022-11-05T14:05:23.433Z,99683.16
2022-11-05T14:07:53.323Z,99683.16
2022-11-05T14:10:39.115Z,99690.75
2022-11-05T14:13:24.969Z,99686.47
2022-11-05T14:16:01.474Z,99684.69
2022-11-05T14:18:42.626Z,99688.09
2022-11-05T14:21:47.292Z,99682.97
2022-11-05T14:24:42.990Z,99701.84
2022-11-05T14:27:46.305Z,99691.59
2022-11-05T14:30:44.125Z,99700.09
2022-11-05T14:33:31.150Z,99697.53
2022-11-05T14:36:32.367Z,99688.28
2022-11-05T14:39:22.153Z,99698.56
2022-11-05T14:42:05.548Z,99693.44
2022-11-05T14:44:36.844Z,99703.69
2022-11-05T14:47:20.831Z,99690.88
2022-11-05T14:49:54.213Z,99696.91
2022-11-05T14:52:25.767Z,99694.34
2022-11-05T14:54:56.897Z,99698.56
2022-11-05T14:58:25.765Z,99705.56
2022-11-05T15:00:55.387Z,99698.78
2022-11-05T15:03:54.676Z,99692.84
2022-11-05T15:06:35.266Z,99692.94
2022-11-05T15:09:33.079Z,99701.47
2022-11-05T15:12:17.914Z,99704.13
2022-11-05T15:14:59.147Z,99703.31
2022-11-05T15:17:31.639Z,99711.84
2022-11-05T15:20:12.268Z,99710.09
2022-11-05T15:22:45.066Z,99713.44
2022-11-05T15:25:22.496Z,99720.34
2022-11-05T15:28:07.920Z,99721.16
2022-11-05T15:30:36.567Z,99729.69
2022-11-05T15:33:20.216Z,99726.28
2022-11-05T15:35:49.094Z,99716.03
2022-11-05T15:38:30.111Z,99704.94
2022-11-05T15:41:03.304Z,99711.00
2022-11-05T15:43:32.221Z,99707.63
2022-11-05T15:46:08.265Z,99705.97
2022-11-05T15:48:38.154Z,99715.31
2022-11-05T15:51:07.124Z,99713.69
2022-11-05T15:54:16.137Z,99722.28
2022-11-05T15:56:52.768Z,99719.03
2022-11-05T15:59:23.845Z,99721.72
2022-11-05T16:01:56.690Z,99730.44
2022-11-05T16:04:29.083Z,99723.66
2022-11-05T16:07:00.838Z,99725.53
2022-11-05T16:09:31.680Z,99721.31
2022-11-05T16:12:32.564Z,99724.09
2022-11-05T16:15:18.565Z,99730.25
2022-11-05T16:17:52.239Z,99731.97
2022-11-05T16:20:26.383Z,99732.94
2022-11-05T16:22:57.760Z,99733.84
2022-11-05T16:25:38.035Z,99730.44
2022-11-05T16:28:23.667Z,99730.56
2022-11-05T16:30:57.231Z,99733.13
2022-11-05T16:33:28.583Z,99727.28
2022-11-05T16:35:57.239Z,99733.13
2022-11-05T16:38:26.061Z,99734.97
2022-11-05T16:40:54.632Z,99737.56
2022-11-05T16:43:26.509Z,99729.84
2022-11-05T16:45:57.903Z,99733.34
2022-11-05T16:48:27.498Z,99734.25
2022-11-05T16:50:56.333Z,99741.13
2022-11-05T16:53:25.024Z,99733.56
2022-11-05T16:55:53.641Z,99732.72
2022-11-05T16:58:26.643Z,99732.72
2022-11-05T17:01:07.897Z,99739.59
2022-11-05T17:03:36.645Z,99744.72
2022-11-05T17:06:05.812Z,99755.91
2022-11-05T17:08:34.436Z,99761.03
2022-11-05T17:11:03.099Z,99761.03
2022-11-05T17:13:33.406Z,99769.56
2022-11-05T17:16:02.114Z,99776.44
2022-11-05T17:18:31.243Z,99785.03
2022-11-05T17:20:59.800Z,99786.00
2022-11-05T17:23:34.669Z,99785.38
2022-11-05T17:26:07.453Z,99783.81
2022-11-05T17:28:38.847Z,99795.94
2022-11-05T17:31:09.642Z,99794.41
2022-11-05T17:33:38.305Z,99797.16
2022-11-05T17:36:08.769Z,99811.91
2022-11-05T17:38:37.505Z,99807.91
2022-11-05T17:41:12.859Z,99815.06
2022-11-05T17:43:43.517Z,99824.69
2022-11-05T17:46:19.222Z,99823.88
2022-11-05T17:48:48.227Z,99819.66
2022-11-05T17:51:19.313Z,99821.53
2022-11-05T17:53:49.651Z,99809.84
2022-11-05T17:56:32.162Z,99808.19
2022-11-05T17:59:04.609Z,99816.00
2022-11-05T18:01:35.998Z,99810.03
2022-11-05T18:04:09.048Z,99808.28
2022-11-05T18:06:38.094Z,99807.47
2022-11-05T18:09:07.155Z,99816.00
2022-11-05T18:11:37.177Z,99812.59
2022-11-05T18:14:08.003Z,99818.53
2022-11-05T18:16:37.294Z,99816.78
2022-11-05T18:19:06.412Z,99824.47
2022-11-05T18:21:35.027Z,99827.88
2022-11-05T18:24:04.721Z,99826.94
2022-11-05T18:26:33.893Z,99824.28
2022-11-05T18:29:03.386Z,99825.22
2022-11-05T18:31:33.395Z,99826.13
2022-11-05T18:34:02.306Z,99830.53
2022-11-05T18:36:34.012Z,99819.66
2022-11-05T18:39:04.744Z,99829.19
2022-11-05T18:41:34.071Z,99832.75
2022-11-05T18:44:04.310Z,99834.63
2022-11-05T18:46:57.002Z,99833.88
2022-11-05T18:49:24.236Z,99828.22
2022-11-05T18:51:52.910Z,99824.34
2022-11-05T18:54:21.829Z,99819.41
2022-11-05T18:56:50.416Z,99820.31
2022-11-05T18:59:38.768Z,99815.31
2022-11-05T19:02:12.115Z,99815.31
2022-11-05T19:04:55.326Z,99816.16
2022-11-05T19:07:30.696Z,99819.63
2022-11-05T19:09:59.311Z,99823.91
2022-11-05T19:12:27.984Z,99836.00
2022-11-05T19:15:01.943Z,99838.66
2022-11-05T19:17:34.091Z,99838.03
2022-11-05T19:20:02.924Z,99844.06
2022-11-05T19:22:31.695Z,99839.03
2022-11-05T19:25:00.350Z,99834.13
2022-11-05T19:27:29.125Z,99835.03
2022-11-05T19:29:57.821Z,99832.47
2022-11-05T19:32:26.477Z,99849.59
2022-11-05T19:34:56.544Z,99846.28
2022-11-05T19:37:25.116Z,99847.25
2022-11-05T19:39:53.787Z,99839.72
2022-11-05T19:42:22.403Z,99840.63
2022-11-05T19:44:51.057Z,99835.50
2022-11-05T19:47:19.942Z,99832.97
2022-11-05T19:49:48.530Z,99840.63
2022-11-05T19:52:18.577Z,99829.69
2022-11-05T19:54:47.166Z,99834.00
2022-11-05T19:57:15.782Z,99830.59
2022-11-05T19:59:44.354Z,99835.00
2022-11-05T20:02:16.258Z,99831.72
2022-11-05T20:04:45.268Z,99831.00
2022-11-05T20:07:13.912Z,99833.56
2022-11-05T20:09:43.902Z,99829.34
2022-11-05T20:12:12.594Z,99825.13
2022-11-05T20:14:41.215Z,99826.06
2022-11-05T20:17:09.856Z,99834.66
2022-11-05T20:19:38.461Z,99835.78
2022-11-05T20:22:07.102Z,99826.56
2022-11-05T20:24:35.707Z,99839.44
2022-11-05T20:27:05.779Z,99834.41
2022-11-05T20:29:35.879Z,99833.69
2022-11-05T20:32:05.708Z,99838.06
2022-11-05T20:34:36.166Z,99838.28
2022-11-05T20:37:04.843Z,99840.13
2022-11-05T20:39:34.578Z,99834.31
2022-11-05T20:42:03.181Z,99830.22
2022-11-05T20:44:33.271Z,99837.25
2022-11-05T20:47:01.895Z,99832.22
2022-11-05T20:49:30.582Z,99838.34
2022-11-05T20:51:59.175Z,99836.09
2022-11-05T20:54:28.001Z,99845.69
2022-11-05T20:56:56.658Z,99841.56
2022-11-05T20:59:25.535Z,99842.50
2022-11-05T21:01:55.602Z,99845.16
2022-11-05T21:04:42.995Z,99840.94
2022-11-05T21:07:30.329Z,99849.44
2022-11-05T21:10:17.751Z,99844.41
2022-11-05T21:13:05.127Z,99852.84
2022-11-05T21:15:56.533Z,99843.50
2022-11-05T21:18:45.438Z,99846.16
2022-11-05T21:21:36.330Z,99839.31
2022-11-05T21:24:25.783Z,99837.84
2022-11-05T21:27:12.831Z,99843.06
2022-11-05T21:30:00.028Z,99840.59
2022-11-05T21:32:47.004Z,99844.16
2022-11-05T21:35:39.458Z,99841.69
2022-11-05T21:38:27.318Z,99833.28
2022-11-05T21:41:14.587Z,99833.28
2022-11-05T21:44:01.731Z,99838.41
2022-11-05T21:46:48.873Z,99831.63
2022-11-05T21:49:36.026Z,99825.69
2022-11-05T21:52:41.834Z,99831.56
2022-11-05T21:55:46.321Z,99824.59
2022-11-05T21:58:50.969Z,99832.19
2022-11-05T22:01:38.114Z,99829.81
2022-11-05T22:04:25.611Z,99829.00
2022-11-05T22:07:16.368Z,99824.91
2022-11-05T22:10:11.748Z,99820.69
2022-11-05T22:13:02.636Z,99825.81
2022-11-05T22:15:56.664Z,99825.00
2022-11-05T22:18:43.617Z,99821.59
2022-11-05T22:21:30.696Z,99829.25
2022-11-05T22:24:18.595Z,99826.00
2022-11-05T22:27:09.668Z,99820.88
2022-11-05T22:29:56.859Z,99825.91
2022-11-05T22:32:46.147Z,99827.56
2022-11-05T22:35:33.387Z,99826.59
2022-11-05T22:38:20.986Z,99825.69
2022-11-05T22:41:09.710Z,99824.78
2022-11-05T22:43:58.715Z,99829.06
2022-11-05T22:46:45.774Z,99823.25
2022-11-05T22:49:33.158Z,99823.34
2022-11-05T22:52:20.347Z,99826.72
2022-11-05T22:55:08.217Z,99832.72
2022-11-05T22:57:55.338Z,99824.44
2022-11-05T23:00:43.703Z,99825.25
2022-11-05T23:03:32.746Z,99830.38
2022-11-05T23:06:40.139Z,99825.25
2022-11-05T23:09:47.875Z,99827.09
2022-11-05T23:12:38.938Z,99833.91
2022-11-05T23:15:43.900Z,99839.13
2022-11-05T23:18:49.763Z,99825.63
2022-11-05T23:21:54.606Z,99823.97
2022-11-05T23:24:41.772Z,99827.44
2022-11-05T23:27:30.521Z,99817.13
2022-11-05T23:30:21.804Z,99817.78
2022-11-05T23:33:08.267Z,99813.56
2022-11-05T23:36:13.964Z,99806.78
2022-11-05T23:39:01.113Z,99810.28
2022-11-05T23:42:05.626Z,99810.44
2022-11-05T23:45:14.283Z,99807.28
2022-11-05T23:48:17.452Z,99798.75
2022-11-05T23:51:11.338Z,99794.56
2022-11-05T23:53:58.740Z,99798.75
2022-11-05T23:56:45.902Z,99795.31
2022-11-05T23:59:33.106Z,99792.66
